Weather observations for the past three days for
Calhoun Tom B. David Field Airport
Imperial (Metric)
Date Time (edt) Wind (mph) Vis. (mi.) Weather Sky Cond. Temperature (ºF) Relative Humidity Wind Chill (°F) Heat Index (°F) Pressure Precipitation (in)
Air Dwpt 6 hour altimeter (in) sea level (mb) 1 hr 3 hr 6 hr
Max. Min.
05 08:35 S 3 10.00 Fair CLR 57.2 55.4 94% 29.98 0.0
05 08:15 S 5 10.00 Fair CLR 55.4 53.6 94% 29.98 0.0
05 07:55 S 3 10.00 Fair CLR 55.4 53.6 54.3 48.7 94% 29.97 0.0
05 07:35 Calm 10.00 Fair CLR 51.8 51.8 100% 29.97 0.0
05 07:15 Calm 10.00 Fair CLR 50 50 100% 29.96 0.0
05 06:55 Calm 10.00 Fair CLR 50 50 100% 29.95 0.0
05 06:35 Calm 10.00 Fair CLR 48.2 48.2 100% 29.95 0.0
05 06:15 Calm 10.00 Fair CLR 50 50 100% 29.95 0.0
05 05:55 Calm 10.00 Fair CLR 50 50 100% 29.95 0.0
05 05:35 Calm 10.00 Fair CLR 50 50 100% 29.96 0.0
05 05:15 Calm 10.00 Fair CLR 50 50 100% 29.95 0.0
05 04:55 Calm 10.00 Fair CLR 50 50 100% 29.95 0.0
05 04:35 Calm 10.00 Fair CLR 50 50 100% 29.95 0.0
05 04:15 Calm 10.00 Fair CLR 50 50 100% 29.96 0.0
05 03:55 Calm 10.00 Fair CLR 51.8 51.8 100% 29.95 0.0
05 03:35 Calm 10.00 Fair CLR 51.8 51.8 100% 29.95 0.0
05 03:15 Calm 10.00 Fair CLR 51.8 51.8 100% 29.95 0.0
05 02:55 Calm 10.00 Fair CLR 51.8 51.8 100% 29.96 0.0
05 02:35 Calm 10.00 Fair CLR 53.6 53.6 100% 29.95 0.0
05 02:15 Calm 10.00 Fair CLR 53.6 53.6 100% 29.96 0.0
05 01:55 Calm 10.00 Fair CLR 53.6 53.6 75.4 53.4 100% 29.96 0.0
05 01:35 Calm 10.00 Fair CLR 53.6 53.6 100% 29.96 0.0
05 01:15 Calm 10.00 Fair CLR 53.6 53.6 100% 29.96 0.0
05 00:55 Calm 10.00 Fair CLR 55.4 53.6 94% 29.96 0.0
05 00:35 Calm 10.00 Fair CLR 55.4 53.6 94% 29.96 0.0
05 00:15 Calm 10.00 Fair CLR 57.2 55.4 94% 29.96 0.0
04 23:55 Calm 10.00 Fair CLR 57.2 53.6 88% 29.95 0.0
04 23:35 Calm 10.00 Fair CLR 59 55.4 88% 29.96 0.0
04 23:15 SW 3 10.00 Fair CLR 59 53.6 82% 29.96 0.0
04 22:55 S 5 10.00 Fair CLR 59 53.6 82% 29.96 0.0
04 22:35 Calm 10.00 Fair CLR 59 55.4 88% 29.95 0.0
04 22:15 S 3 10.00 Fair CLR 59 55.4 88% 29.95 0.0
04 21:55 S 3 10.00 Fair CLR 62.6 53.6 73% 29.94 0.0
04 21:35 Calm 10.00 Fair CLR 62.6 55.4 77% 29.94 0.0
04 21:15 Calm 10.00 Fair CLR 66.2 53.6 64% 29.93 0.0
04 20:55 Calm 10.00 Fair CLR 66.2 51.8 60% 29.93 0.0
04 20:35 S 5 10.00 Fair CLR 69.8 51.8 53% 29.93 0.0
04 20:15 S 5 10.00 Fair CLR 73.4 48.2 41% 29.92 0.0
04 19:55 SW 6 10.00 Fair CLR 75.2 48.2 79.3 73.9 39% 77 29.92 0.0
04 19:35 SW 8 10.00 Fair CLR 77 46.4 34% 78 29.92 0.0
04 19:15 S 10 10.00 Fair CLR 77 46.4 34% 78 29.92 0.0
04 18:55 SW 7 10.00 Fair CLR 77 48.2 36% 78 29.92 0.0
04 18:35 S 3 10.00 Fair CLR 77 48.2 36% 78 29.92 0.0
04 18:15 S 9 10.00 Fair CLR 78.8 48.2 34% 79 29.93 0.0
04 17:55 SW 7 10.00 Fair CLR 78.8 50 37% 79 29.92 0.0
04 17:35 SW 7 10.00 Fair CLR 77 50 39% 78 29.93 0.0
04 17:15 S 7 10.00 Fair CLR 78.8 50 37% 79 29.93 0.0
04 16:55 S 7 10.00 Fair CLR 77 48.2 36% 78 29.93 0.0
04 16:35 S 12 10.00 Fair CLR 78.8 48.2 34% 79 29.94 0.0
04 16:15 W 7 10.00 Fair CLR 78.8 50 37% 79 29.94 0.0
04 15:55 SW 9 10.00 Fair CLR 78.8 48.2 34% 79 29.95 0.0
04 15:35 Vrbl 6 10.00 Fair CLR 77 51.8 42% 78 29.96 0.0
04 15:16 Calm 10.00 Fair CLR 77 50 39% 78 29.97 0.0
04 14:55 Calm 10.00 Fair CLR 77 50 39% 78 29.98 0.0
04 14:35 Calm 10.00 Fair CLR 75.2 50 41% 78 29.99 0.0
04 14:16 SW 8 10.00 Fair CLR 75.2 50 41% 78 29.99 0.0
04 13:55 Vrbl 5 10.00 Fair CLR 75.2 50 74.5 44.6 41% 78 30 0.0
04 13:35 W 8 10.00 Fair CLR 73.4 50 44% 30.01 0.0
04 13:15 Vrbl 6 10.00 Fair CLR 73.4 48.2 41% 30.02 0.0
04 12:55 W 6 10.00 Fair CLR 71.6 48.2 44% 30.03 0.0
04 12:35 Vrbl 5 10.00 Fair CLR 71.6 48.2 44% 30.04 0.0
04 12:15 SW 7 G 16 10.00 Fair CLR 69.8 48.2 46% 30.04 0.0
04 11:55 Vrbl 7 10.00 Fair CLR 69.8 48.2 46% 30.05 0.0
04 11:35 SW 5 10.00 Fair CLR 68 48.2 49% 30.05 0.0
04 11:15 SW 7 10.00 Fair CLR 68 48.2 49% 30.05 0.0
04 10:55 Vrbl 3 10.00 Fair CLR 64.4 53.6 68% 30.06 0.0
04 10:35 Calm 10.00 Fair CLR 62.6 53.6 73% 30.07 0.0
04 10:15 Calm 10.00 Fair CLR 60.8 51.8 72% 30.07 0.0
04 09:55 Calm 10.00 Fair CLR 59 50 72% 30.08 0.0
04 09:35 Calm 10.00 Fair CLR 57.2 50 77% 30.07 0.0
04 09:15 Calm 10.00 Fair CLR 53.6 50 88% 30.08 0.0
04 08:55 Calm 10.00 Fair CLR 51.8 50 94% 30.07 0.0
04 08:35 Calm 10.00 Fair CLR 48.2 48.2 100% 30.07 0.0
04 07:55 Calm 10.00 Fair CLR 44.6 44.6 46.8 41.7 100% 30.08 0.0
04 07:35 Calm 10.00 Fair CLR 42.8 42.8 100% 30.07 0.0
04 07:15 Calm 10.00 Fair CLR 42.8 42.8 100% 30.07 0.0
04 06:55 Calm 10.00 Fair CLR 42.8 42.8 100% 30.06 0.0
04 06:35 Calm 10.00 Fair CLR 42.8 42.8 100% 30.06 0.0
04 06:15 Calm 10.00 Fair CLR 42.8 42.8 100% 30.06 0.0
04 05:55 Calm 10.00 Fair CLR 42.8 42.8 100% 30.06 0.0
04 05:35 Calm 10.00 Fair CLR 44.6 44.6 100% 30.06 0.0
04 05:15 Calm 10.00 Fair CLR 0 0 0% 30.06 0.0
04 04:55 Calm 10.00 Fair CLR 42.8 42.8 100% 30.05 0.0
04 04:35 S 3 10.00 Fair CLR 44.6 44.6 100% 30.05 0.0
04 04:15 Calm 10.00 Fair CLR 44.6 44.6 100% 30.05 0.0
04 03:55 S 3 10.00 Fair CLR 44.6 44.6 100% 30.05 0.0
04 03:35 Calm 10.00 Fair CLR 44.6 44.6 100% 30.05 0.0
04 03:15 Calm 10.00 Fair CLR 44.6 44.6 100% 30.05 0.0
04 02:55 Calm 10.00 Fair CLR 44.6 44.6 100% 30.06 0.0
04 02:35 Calm 10.00 Fair CLR 44.6 44.6 100% 30.07 0.0
04 02:15 Calm 10.00 Fair CLR 46.4 46.4 100% 30.07 0.0
04 01:55 Calm 10.00 Fair CLR 46.4 46.4 67.8 46.6 100% 30.07 0.0
04 01:35 Calm 10.00 Fair CLR 48.2 48.2 100% 30.08 0.0
04 01:15 Calm 10.00 Fair CLR 48.2 48.2 100% 30.07 0.0
04 00:55 Calm 10.00 Fair CLR 50 48.2 94% 30.07 0.0
04 00:35 Calm 10.00 Fair CLR 50 50 100% 30.07 0.0
04 00:15 S 5 10.00 Fair CLR 50 50 100% 49 30.07 0.0
03 23:55 S 3 10.00 Fair CLR 50 48.2 94% 30.07 0.0
03 23:35 S 5 10.00 Fair CLR 50 48.2 94% 49 30.07 0.0
03 23:15 S 6 10.00 Fair CLR 51.8 48.2 88% 30.07 0.0
03 22:55 Calm 10.00 Fair CLR 53.6 46.4 77% 30.06 0.0
03 22:35 Calm 10.00 Fair CLR 53.6 46.4 77% 30.07 0.0
03 22:15 S 3 10.00 Fair CLR 53.6 46.4 77% 30.06 0.0
03 21:55 Calm 10.00 Fair CLR 55.4 46.4 72% 30.06 0.0
03 21:35 Calm 10.00 Fair CLR 59 46.4 63% 30.05 0.0
03 21:15 W 3 10.00 Fair CLR 60.8 44.6 55% 30.05 0.0
03 20:55 W 5 10.00 Fair CLR 62.6 41 45% 30.04 0.0
03 20:35 W 6 10.00 Fair CLR 64.4 41 43% 30.03 0.0
03 20:15 W 5 10.00 Fair CLR 66.2 41 40% 30.03 0.0
03 19:55 W 5 10.00 Fair CLR 68 39.2 70.3 64 35% 30.03 0.0
03 19:35 SW 3 10.00 Fair CLR 68 39.2 35% 30.03 0.0
03 19:15 W 5 10.00 Fair CLR 69.8 37.4 31% 30.03 0.0
03 18:55 Vrbl 6 10.00 Fair CLR 69.8 39.2 33% 30.03 0.0
03 18:35 SW 5 10.00 Fair CLR 69.8 39.2 33% 30.04 0.0
03 18:15 W 6 10.00 Fair CLR 69.8 41 35% 30.04 0.0
03 17:55 Vrbl 7 10.00 Fair CLR 69.8 41 35% 30.04 0.0
03 17:35 NW 5 10.00 Fair CLR 69.8 39.2 33% 30.05 0.0
03 17:15 W 6 10.00 Fair CLR 69.8 39.2 33% 30.05 0.0
03 16:55 NW 7 10.00 Fair CLR 69.8 37.4 31% 30.06 0.0
03 16:35 Vrbl 7 10.00 Fair CLR 69.8 37.4 31% 30.07 0.0
03 16:15 W 10 G 18 10.00 Fair CLR 68 39.2 35% 30.08 0.0
03 15:55 W 8 10.00 Fair CLR 68 39.2 35% 30.09 0.0
03 15:35 Calm 10.00 Fair CLR 68 39.2 35% 30.1 0.0
03 15:15 Calm 10.00 Fair CLR 68 37.4 33% 30.11 0.0
03 14:55 W 9 10.00 Fair CLR 68 42.8 40% 30.11 0.0
03 14:35 Calm 10.00 Fair CLR 66.2 42.8 43% 30.12 0.0
03 14:15 NW 7 10.00 Fair CLR 66.2 41 40% 30.13 0.0
03 13:55 Calm 10.00 Fair CLR 64.4 42.8 65.5 43.3 46% 30.14 0.0
03 13:35 S 5 10.00 Fair CLR 64.4 42.8 46% 30.14 0.0
03 13:15 NW 8 10.00 Fair CLR 62.6 41 45% 30.15 0.0
03 12:55 W 7 10.00 Fair CLR 62.6 39.2 42% 30.16 0.0
03 12:35 NW 7 10.00 Fair CLR 60.8 39.2 45% 30.16 0.0
03 12:15 NW 8 10.00 Fair CLR 62.6 41 45% 30.17 0.0
03 11:55 W 7 10.00 Fair CLR 60.8 42.8 52% 30.17 0.0
03 11:35 NW 7 10.00 Fair CLR 59 44.6 59% 30.18 0.0
03 11:16 NW 6 10.00 Fair CLR 59 46.4 63% 30.18 0.0
03 10:55 Calm 10.00 Fair CLR 57.2 46.4 67% 30.18 0.0
03 10:35 Vrbl 3 10.00 Fair CLR 57.2 48.2 72% 30.18 0.0
03 10:15 NW 5 10.00 Fair CLR 55.4 48.2 77% 30.17 0.0
03 09:55 NE 7 10.00 Fair CLR 53.6 48.2 82% 30.17 0.0
03 09:35 Calm 10.00 Fair CLR 53.6 48.2 82% 30.17 0.0
03 09:15 NE 5 10.00 Fair CLR 51.8 48.2 88% 30.17 0.0
03 08:55 Calm 10.00 Fair CLR 50 48.2 94% 30.16 0.0
03 08:35 Calm 10.00 Fair CLR 48.2 48.2 100% 30.16 0.0
03 08:15 Calm 10.00 Fair CLR 46.4 46.4 100% 30.16 0.0
03 07:55 Calm 10.00 Fair CLR 44.6 44.6 48.6 40.8 100% 30.15 0.0
03 07:35 Calm 10.00 Fair CLR 41 41 100% 30.15 0.0
03 07:15 Calm 10.00 Fair CLR 0 0 0% 30.14 0.0
03 06:35 Calm 10.00 Fair CLR 41 41 100% 30.13 0.0
03 06:15 Calm 10.00 Fair CLR 0 0 0% 30.12 0.0
03 05:55 Calm 10.00 Fair CLR 0 0 0% 30.12 0.0
03 05:35 Calm 10.00 Fair CLR 42.8 42.8 100% 30.12 0.0
03 05:15 Calm 10.00 Fair CLR 42.8 42.8 100% 30.11 0.0
03 04:55 Calm 10.00 Fair CLR 42.8 42.8 100% 30.1 0.0
03 04:35 Calm 10.00 Fair CLR 0 0 0% 30.1 0.0
03 04:15 Calm 10.00 Fair CLR 44.6 44.6 100% 30.09 0.0
03 03:55 Calm 10.00 Fair CLR 44.6 44.6 100% 30.09 0.0
03 03:35 Calm 10.00 Fair CLR 44.6 44.6 100% 30.08 0.0
03 03:15 Calm 10.00 Fair CLR 44.6 44.6 100% 30.07 0.0
03 02:55 Calm 10.00 Fair CLR 46.4 46.4 100% 30.07 0.0
03 02:35 Calm 10.00 Fair CLR 48.2 46.4 94% 30.07 0.0
03 02:15 Calm 10.00 Fair CLR 48.2 46.4 94% 30.07 0.0
03 01:55 Calm 10.00 Fair CLR 48.2 44.6 64.9 48.6 87% 30.07 0.0
03 01:35 Calm 10.00 Fair CLR 50 44.6 82% 30.07 0.0
03 01:13 Calm 10.00 Fair CLR 51.8 42.8 72% 30.07 0.0
03 00:55 N 5 10.00 Fair CLR 53.6 41 63% 30.07 0.0
03 00:35 N 6 10.00 Fair CLR 55.4 39.2 55% 30.06 0.0
03 00:15 N 6 10.00 A Few Clouds FEW085 57.2 39.2 51% 30.06 0.0
02 23:55 N 6 10.00 Mostly Cloudy BKN090 55.4 41 59% 30.05 0.0
02 23:35 Calm 10.00 Overcast FEW075 OVC095 55.4 42.8 63% 30.05 0.0
02 23:15 Calm 10.00 Overcast OVC100 55.4 42.8 63% 30.05 0.0
02 22:55 N 5 10.00 Mostly Cloudy BKN100 57.2 37.4 48% 30.04 0.0
02 22:35 N 5 10.00 A Few Clouds FEW100 55.4 39.2 55% 30.03 0.0
02 22:15 Calm 10.00 A Few Clouds FEW100 55.4 42.8 63% 30.02 0.0
02 21:55 Calm 10.00 Mostly Cloudy SCT080 BKN090 55.4 41 59% 30.01 0.0
02 21:35 Calm 10.00 Overcast BKN080 OVC090 55.4 42.8 63% 30 0.0
02 21:15 Calm 10.00 Overcast SCT070 OVC095 57.2 41 55% 29.99 0.0
02 20:55 Calm 10.00 Partly Cloudy SCT100 59 39.2 48% 29.99 0.0
02 20:35 Calm 10.00 Fair CLR 60.8 37.4 42% 29.98 0.0
02 20:15 NW 5 10.00 Fair CLR 62.6 33.8 34% 29.97 0.0
02 19:55 N 7 10.00 Fair CLR 64.4 32 68.7 64.8 30% 29.96 0.0
02 19:35 N 8 10.00 Fair CLR 66.2 32 28% 29.96 0.0
02 19:15 N 7 10.00 Fair CLR 66.2 32 28% 29.95 0.0
02 18:55 N 9 G 16 10.00 A Few Clouds FEW090 66.2 32 28% 29.96 0.0
02 18:35 NW 9 10.00 Partly Cloudy SCT090 66.2 32 28% 29.95 0.0
02 18:16 N 9 G 18 10.00 A Few Clouds FEW090 68 33.8 28% 29.95 0.0
02 17:55 N 12 G 22 10.00 A Few Clouds FEW080 68 32 26% 29.95 0.0
02 17:35 NW 10 G 21 10.00 Partly Cloudy SCT080 68 32 26% 29.94 0.0
02 17:15 N 9 G 16 10.00 A Few Clouds FEW080 68 32 26% 29.94 0.0
02 16:55 N 10 G 21 10.00 A Few Clouds FEW080 68 32 26% 29.94 0.0
02 16:35 N 14 G 21 10.00 A Few Clouds FEW080 68 32 26% 29.94 0.0
02 16:15 N 9 G 20 10.00 Fair CLR 68 33.8 28% 29.95 0.0
02 15:55 N 12 G 21 10.00 Fair CLR 66.2 32 28% 29.95 0.0
02 15:35 N 15 G 23 10.00 Fair CLR 68 32 26% 29.95 0.0
02 15:16 N 16 G 28 10.00 Fair CLR 68 30.2 24% 29.95 0.0
02 14:55 N 16 G 23 10.00 Fair CLR 68 32 26% 29.95 0.0
02 14:35 N 14 G 23 10.00 Fair CLR 68 32 26% 29.95 0.0
02 14:15 N 14 G 22 10.00 Fair CLR 66.2 33.8 30% 29.95 0.0
02 13:55 N 14 G 24 10.00 Fair CLR 66.2 35.6 66.6 54.9 32% 29.95 0.0
02 13:35 N 13 G 22 10.00 Fair CLR 66.2 35.6 32% 29.96 0.0
02 13:15 N 16 G 23 10.00 Fair CLR 64.4 39.2 40% 29.96 0.0
02 12:55 N 12 G 21 10.00 Fair CLR 64.4 39.2 40% 29.96 0.0
02 12:35 N 14 G 21 10.00 Fair CLR 62.6 39.2 42% 29.96 0.0
02 12:15 NW 17 G 23 10.00 Fair CLR 62.6 39.2 42% 29.97 0.0
02 11:55 N 15 G 25 10.00 Fair CLR 62.6 37.4 39% 29.97 0.0
02 11:35 N 15 G 23 10.00 Fair CLR 62.6 39.2 42% 29.96 0.0
02 11:15 N 10 10.00 Fair CLR 60.8 41 48% 29.96 0.0
02 10:55 N 14 G 22 10.00 Fair CLR 60.8 39.2 45% 29.96 0.0
02 10:35 N 8 G 20 10.00 Fair CLR 60.8 39.2 45% 29.95 0.0
02 10:15 N 12 G 21 10.00 Fair CLR 60.8 41 48% 29.95 0.0
02 09:55 N 13 G 18 10.00 Fair CLR 59 41 51% 29.94 0.0
02 09:35 N 14 10.00 Fair CLR 57.2 41 55% 29.94 0.0
02 09:15 N 9 10.00 Fair CLR 57.2 41 55% 29.94 0.0
02 08:55 N 7 10.00 Fair CLR 55.4 42.8 63% 29.93 0.0
Date Time (edt) Wind (mph) Vis. (mi.) Weather Sky Cond. Air Dwpt Max. Min. Relative Humidity Wind Chill (°F) Heat Index (°F) altimeter (in) sea level (mb) 1 hr 3 hr 6 hr
6 hour
Temperature (ºF) Pressure Precipitation (in)